sensor_id;sensor_type;location;lat;lon;timestamp;pressure;altitude;pressure_sealevel;temperature
24714;BMP280;12820;51.580;5.010;2023-03-14T00:00:31;98897.88;;;13.93
24714;BMP280;12820;51.580;5.010;2023-03-14T00:05:34;98904.97;;;13.87
24714;BMP280;12820;51.580;5.010;2023-03-14T00:10:36;98917.94;;;13.81
24714;BMP280;12820;51.580;5.010;2023-03-14T00:15:38;98926.56;;;13.77
24714;BMP280;12820;51.580;5.010;2023-03-14T00:20:41;98930.91;;;13.75
24714;BMP280;12820;51.580;5.010;2023-03-14T00:25:43;98930.06;;;13.75
24714;BMP280;12820;51.580;5.010;2023-03-14T00:30:45;98923.41;;;13.74
24714;BMP280;12820;51.580;5.010;2023-03-14T00:35:55;98923.41;;;13.74
24714;BMP280;12820;51.580;5.010;2023-03-14T00:40:58;98931.84;;;13.73
24714;BMP280;12820;51.580;5.010;2023-03-14T00:46:01;98924.63;;;13.67
24714;BMP280;12820;51.580;5.010;2023-03-14T00:51:04;98926.59;;;13.62
24714;BMP280;12820;51.580;5.010;2023-03-14T00:56:10;98914.06;;;13.61
24714;BMP280;12820;51.580;5.010;2023-03-14T01:01:16;98907.53;;;13.57
24714;BMP280;12820;51.580;5.010;2023-03-14T01:06:25;98898.44;;;13.54
24714;BMP280;12820;51.580;5.010;2023-03-14T01:11:30;98917.81;;;13.54
24714;BMP280;12820;51.580;5.010;2023-03-14T01:16:34;98912.84;;;13.52
24714;BMP280;12820;51.580;5.010;2023-03-14T01:21:36;98918.06;;;13.50
24714;BMP280;12820;51.580;5.010;2023-03-14T01:26:39;98903.28;;;13.44
24714;BMP280;12820;51.580;5.010;2023-03-14T01:31:42;98905.16;;;13.40
24714;BMP280;12820;51.580;5.010;2023-03-14T01:36:45;98912.97;;;13.36
24714;BMP280;12820;51.580;5.010;2023-03-14T01:41:47;98902.16;;;13.34
24714;BMP280;12820;51.580;5.010;2023-03-14T01:46:49;98896.28;;;13.33
24714;BMP280;12820;51.580;5.010;2023-03-14T02:02:12;98891.66;;;13.26
24714;BMP280;12820;51.580;5.010;2023-03-14T02:07:20;98882.47;;;13.25
24714;BMP280;12820;51.580;5.010;2023-03-14T02:12:40;98871.66;;;13.23
24714;BMP280;12820;51.580;5.010;2023-03-14T02:18:08;98870.13;;;13.21
24714;BMP280;12820;51.580;5.010;2023-03-14T02:23:55;98865.97;;;13.20
24714;BMP280;12820;51.580;5.010;2023-03-14T02:29:06;98859.22;;;13.20
24714;BMP280;12820;51.580;5.010;2023-03-14T02:34:08;98866.78;;;13.20
24714;BMP280;12820;51.580;5.010;2023-03-14T02:39:33;98855.06;;;13.19
24714;BMP280;12820;51.580;5.010;2023-03-14T02:44:48;98852.66;;;13.18
24714;BMP280;12820;51.580;5.010;2023-03-14T02:49:53;98861.91;;;13.17
24714;BMP280;12820;51.580;5.010;2023-03-14T02:54:56;98859.38;;;13.17
24714;BMP280;12820;51.580;5.010;2023-03-14T03:00:01;98840.84;;;13.18
24714;BMP280;12820;51.580;5.010;2023-03-14T03:05:08;98862.88;;;13.15
24714;BMP280;12820;51.580;5.010;2023-03-14T03:10:10;98858.00;;;13.12
24714;BMP280;12820;51.580;5.010;2023-03-14T03:15:13;98852.22;;;13.10
24714;BMP280;12820;51.580;5.010;2023-03-14T03:20:16;98843.22;;;13.06
24714;BMP280;12820;51.580;5.010;2023-03-14T03:25:18;98839.94;;;13.04
24714;BMP280;12820;51.580;5.010;2023-03-14T03:30:20;98830.03;;;13.01
24714;BMP280;12820;51.580;5.010;2023-03-14T03:35:23;98834.44;;;12.98
24714;BMP280;12820;51.580;5.010;2023-03-14T03:40:27;98826.13;;;12.96
24714;BMP280;12820;51.580;5.010;2023-03-14T03:45:30;98831.38;;;12.93
24714;BMP280;12820;51.580;5.010;2023-03-14T03:50:32;98828.09;;;12.91
24714;BMP280;12820;51.580;5.010;2023-03-14T03:55:34;98834.94;;;12.89
24714;BMP280;12820;51.580;5.010;2023-03-14T04:00:37;98846.00;;;12.87
24714;BMP280;12820;51.580;5.010;2023-03-14T04:05:39;98846.06;;;12.85
24714;BMP280;12820;51.580;5.010;2023-03-14T04:10:45;98842.00;;;12.83
24714;BMP280;12820;51.580;5.010;2023-03-14T04:15:54;98840.50;;;12.80
24714;BMP280;12820;51.580;5.010;2023-03-14T04:21:00;98812.09;;;12.77
24714;BMP280;12820;51.580;5.010;2023-03-14T04:26:11;98819.66;;;12.77
24714;BMP280;12820;51.580;5.010;2023-03-14T04:31:18;98822.41;;;12.73
24714;BMP280;12820;51.580;5.010;2023-03-14T04:36:21;98822.59;;;12.70
24714;BMP280;12820;51.580;5.010;2023-03-14T04:41:24;98829.41;;;12.68
24714;BMP280;12820;51.580;5.010;2023-03-14T04:46:26;98819.41;;;12.66
24714;BMP280;12820;51.580;5.010;2023-03-14T04:51:28;98823.72;;;12.64
24714;BMP280;12820;51.580;5.010;2023-03-14T04:56:31;98823.72;;;12.64
24714;BMP280;12820;51.580;5.010;2023-03-14T05:01:35;98817.88;;;12.64
24714;BMP280;12820;51.580;5.010;2023-03-14T05:06:55;98813.72;;;12.63
24714;BMP280;12820;51.580;5.010;2023-03-14T05:12:08;98815.34;;;12.64
24714;BMP280;12820;51.580;5.010;2023-03-14T05:17:25;98810.50;;;12.61
24714;BMP280;12820;51.580;5.010;2023-03-14T05:22:45;98797.91;;;12.61
24714;BMP280;12820;51.580;5.010;2023-03-14T05:28:13;98803.16;;;12.57
24714;BMP280;12820;51.580;5.010;2023-03-14T05:33:39;98787.34;;;12.53
24714;BMP280;12820;51.580;5.010;2023-03-14T05:38:48;98790.94;;;12.49
24714;BMP280;12820;51.580;5.010;2023-03-14T05:44:16;98794.44;;;12.47
24714;BMP280;12820;51.580;5.010;2023-03-14T05:49:45;98785.34;;;12.44
24714;BMP280;12820;51.580;5.010;2023-03-14T05:54:53;98793.78;;;12.43
24714;BMP280;12820;51.580;5.010;2023-03-14T06:00:18;98792.19;;;12.43
24714;BMP280;12820;51.580;5.010;2023-03-14T06:05:38;98794.69;;;12.43
24714;BMP280;12820;51.580;5.010;2023-03-14T06:10:40;98805.66;;;12.42
24714;BMP280;12820;51.580;5.010;2023-03-14T06:15:43;98800.63;;;12.42
24714;BMP280;12820;51.580;5.010;2023-03-14T06:20:47;98800.44;;;12.44
24714;BMP280;12820;51.580;5.010;2023-03-14T06:25:57;98814.50;;;12.48
24714;BMP280;12820;51.580;5.010;2023-03-14T06:31:01;98801.09;;;12.48
24714;BMP280;12820;51.580;5.010;2023-03-14T06:36:09;98808.56;;;12.49
24714;BMP280;12820;51.580;5.010;2023-03-14T06:41:14;98817.75;;;12.50
24714;BMP280;12820;51.580;5.010;2023-03-14T06:46:18;98821.91;;;12.51
24714;BMP280;12820;51.580;5.010;2023-03-14T06:51:20;98832.88;;;12.50
24714;BMP280;12820;51.580;5.010;2023-03-14T06:56:24;98926.16;;;12.49
24714;BMP280;12820;51.580;5.010;2023-03-14T07:01:29;98951.75;;;12.42
24714;BMP280;12820;51.580;5.010;2023-03-14T07:06:39;98973.31;;;12.30
24714;BMP280;12820;51.580;5.010;2023-03-14T07:11:46;98989.97;;;12.16
24714;BMP280;12820;51.580;5.010;2023-03-14T07:16:49;99002.66;;;11.98
24714;BMP280;12820;51.580;5.010;2023-03-14T07:21:51;99012.78;;;11.80
24714;BMP280;12820;51.580;5.010;2023-03-14T07:27:00;99036.13;;;11.66
24714;BMP280;12820;51.580;5.010;2023-03-14T07:32:03;99069.16;;;11.58
24714;BMP280;12820;51.580;5.010;2023-03-14T07:37:05;99083.75;;;11.52
24714;BMP280;12820;51.580;5.010;2023-03-14T07:42:08;99100.66;;;11.49
24714;BMP280;12820;51.580;5.010;2023-03-14T07:47:42;99124.97;;;11.48
24714;BMP280;12820;51.580;5.010;2023-03-14T07:52:44;99135.94;;;11.47
24714;BMP280;12820;51.580;5.010;2023-03-14T07:57:46;99152.59;;;11.50
24714;BMP280;12820;51.580;5.010;2023-03-14T08:02:48;99170.19;;;11.50
24714;BMP280;12820;51.580;5.010;2023-03-14T08:07:50;99185.69;;;11.59
24714;BMP280;12820;51.580;5.010;2023-03-14T08:12:55;99200.53;;;11.65
24714;BMP280;12820;51.580;5.010;2023-03-14T08:17:58;99218.78;;;11.70
24714;BMP280;12820;51.580;5.010;2023-03-14T08:23:00;99234.75;;;11.69
24714;BMP280;12820;51.580;5.010;2023-03-14T08:28:03;99251.75;;;11.64
24714;BMP280;12820;51.580;5.010;2023-03-14T08:33:06;99274.72;;;11.56
24714;BMP280;12820;51.580;5.010;2023-03-14T08:38:08;99288.22;;;11.54
24714;BMP280;12820;51.580;5.010;2023-03-14T08:43:10;99308.16;;;11.58
24714;BMP280;12820;51.580;5.010;2023-03-14T08:48:12;99313.44;;;11.72
24714;BMP280;12820;51.580;5.010;2023-03-14T08:53:15;99335.13;;;11.94
24714;BMP280;12820;51.580;5.010;2023-03-14T08:58:17;99342.66;;;12.13
24714;BMP280;12820;51.580;5.010;2023-03-14T09:03:19;99365.53;;;12.27
24714;BMP280;12820;51.580;5.010;2023-03-14T09:08:21;99403.19;;;12.10
24714;BMP280;12820;51.580;5.010;2023-03-14T09:13:23;99439.91;;;11.96
24714;BMP280;12820;51.580;5.010;2023-03-14T09:18:25;99466.28;;;11.88
24714;BMP280;12820;51.580;5.010;2023-03-14T09:23:27;99491.75;;;11.81
24714;BMP280;12820;51.580;5.010;2023-03-14T09:28:29;99519.91;;;11.69
24714;BMP280;12820;51.580;5.010;2023-03-14T09:33:32;99545.41;;;11.60
24714;BMP280;12820;51.580;5.010;2023-03-14T09:38:34;99558.19;;;11.56
24714;BMP280;12820;51.580;5.010;2023-03-14T09:43:36;99579.81;;;11.60
24714;BMP280;12820;51.580;5.010;2023-03-14T09:48:39;99598.84;;;11.88
24714;BMP280;12820;51.580;5.010;2023-03-14T09:53:46;99619.75;;;11.90
24714;BMP280;12820;51.580;5.010;2023-03-14T09:58:55;99639.44;;;11.80
24714;BMP280;12820;51.580;5.010;2023-03-14T10:04:06;99673.47;;;11.90
24714;BMP280;12820;51.580;5.010;2023-03-14T10:09:19;99679.97;;;12.37
24714;BMP280;12820;51.580;5.010;2023-03-14T10:14:32;99698.72;;;12.92
24714;BMP280;12820;51.580;5.010;2023-03-14T10:19:36;99717.28;;;13.28
24714;BMP280;12820;51.580;5.010;2023-03-14T10:24:46;99744.16;;;13.29
24714;BMP280;12820;51.580;5.010;2023-03-14T10:30:04;99769.53;;;13.46
24714;BMP280;12820;51.580;5.010;2023-03-14T10:40:18;99795.78;;;13.81
24714;BMP280;12820;51.580;5.010;2023-03-14T10:45:38;99815.25;;;13.77
24714;BMP280;12820;51.580;5.010;2023-03-14T10:51:02;99846.69;;;14.09
24714;BMP280;12820;51.580;5.010;2023-03-14T10:56:05;99870.38;;;14.07
24714;BMP280;12820;51.580;5.010;2023-03-14T11:17:44;99954.06;;;14.00
24714;BMP280;12820;51.580;5.010;2023-03-14T11:22:57;99972.78;;;14.53
24714;BMP280;12820;51.580;5.010;2023-03-14T11:28:26;99978.63;;;14.73
24714;BMP280;12820;51.580;5.010;2023-03-14T11:33:46;99999.47;;;14.59
24714;BMP280;12820;51.580;5.010;2023-03-14T11:38:57;100031.47;;;14.22
24714;BMP280;12820;51.580;5.010;2023-03-14T11:44:04;100027.25;;;14.01
24714;BMP280;12820;51.580;5.010;2023-03-14T11:49:18;100049.81;;;14.05
24714;BMP280;12820;51.580;5.010;2023-03-14T11:54:40;100049.50;;;14.71
24714;BMP280;12820;51.580;5.010;2023-03-14T12:05:39;100058.09;;;18.01
24714;BMP280;12820;51.580;5.010;2023-03-14T12:11:09;100053.59;;;21.79
24714;BMP280;12820;51.580;5.010;2023-03-14T12:16:34;100074.19;;;22.23
24714;BMP280;12820;51.580;5.010;2023-03-14T12:21:48;100093.28;;;21.49
24714;BMP280;12820;51.580;5.010;2023-03-14T12:26:57;100096.03;;;22.16
24714;BMP280;12820;51.580;5.010;2023-03-14T12:37:17;100099.69;;;24.80
24714;BMP280;12820;51.580;5.010;2023-03-14T12:47:54;100117.44;;;22.15
24714;BMP280;12820;51.580;5.010;2023-03-14T12:58:35;100146.31;;;22.17
24714;BMP280;12820;51.580;5.010;2023-03-14T13:03:45;100151.09;;;23.12
24714;BMP280;12820;51.580;5.010;2023-03-14T13:08:47;100157.53;;;24.44
24714;BMP280;12820;51.580;5.010;2023-03-14T13:13:57;100174.16;;;25.50
24714;BMP280;12820;51.580;5.010;2023-03-14T13:19:01;100173.47;;;26.81
24714;BMP280;12820;51.580;5.010;2023-03-14T13:24:07;100183.13;;;28.13
24714;BMP280;12820;51.580;5.010;2023-03-14T13:29:23;100191.16;;;29.46
24714;BMP280;12820;51.580;5.010;2023-03-14T13:34:30;100204.09;;;30.68
24714;BMP280;12820;51.580;5.010;2023-03-14T13:39:32;100211.34;;;31.73
24714;BMP280;12820;51.580;5.010;2023-03-14T13:44:37;100244.63;;;31.77
24714;BMP280;12820;51.580;5.010;2023-03-14T13:49:40;100243.63;;;31.78
24714;BMP280;12820;51.580;5.010;2023-03-14T13:54:42;100262.25;;;30.42
24714;BMP280;12820;51.580;5.010;2023-03-14T13:59:58;100277.66;;;29.53
24714;BMP280;12820;51.580;5.010;2023-03-14T14:05:00;100301.88;;;28.15
24714;BMP280;12820;51.580;5.010;2023-03-14T14:10:04;100326.91;;;26.19
24714;BMP280;12820;51.580;5.010;2023-03-14T14:15:19;100362.16;;;25.08
24714;BMP280;12820;51.580;5.010;2023-03-14T14:20:27;100356.84;;;26.10
24714;BMP280;12820;51.580;5.010;2023-03-14T14:25:33;100366.41;;;24.98
24714;BMP280;12820;51.580;5.010;2023-03-14T14:30:35;100377.34;;;23.49
24714;BMP280;12820;51.580;5.010;2023-03-14T14:35:38;100389.38;;;22.31
24714;BMP280;12820;51.580;5.010;2023-03-14T14:40:45;100420.81;;;21.58
24714;BMP280;12820;51.580;5.010;2023-03-14T14:45:52;100432.16;;;20.89
24714;BMP280;12820;51.580;5.010;2023-03-14T14:51:01;100446.91;;;20.16
24714;BMP280;12820;51.580;5.010;2023-03-14T14:56:16;100466.78;;;19.39
24714;BMP280;12820;51.580;5.010;2023-03-14T15:01:22;100482.78;;;18.64
24714;BMP280;12820;51.580;5.010;2023-03-14T15:06:28;100503.97;;;18.00
24714;BMP280;12820;51.580;5.010;2023-03-14T15:11:30;100514.75;;;17.36
24714;BMP280;12820;51.580;5.010;2023-03-14T15:16:33;100525.31;;;16.71
24714;BMP280;12820;51.580;5.010;2023-03-14T15:21:35;100531.97;;;16.17
24714;BMP280;12820;51.580;5.010;2023-03-14T15:26:37;100527.81;;;15.74
24714;BMP280;12820;51.580;5.010;2023-03-14T15:31:41;100552.94;;;15.37
24714;BMP280;12820;51.580;5.010;2023-03-14T15:36:45;100558.50;;;15.03
24714;BMP280;12820;51.580;5.010;2023-03-14T15:41:47;100567.88;;;14.75
24714;BMP280;12820;51.580;5.010;2023-03-14T15:46:50;100577.19;;;14.51
24714;BMP280;12820;51.580;5.010;2023-03-14T15:51:52;100585.56;;;14.28
24714;BMP280;12820;51.580;5.010;2023-03-14T15:56:55;100607.31;;;14.08
24714;BMP280;12820;51.580;5.010;2023-03-14T16:01:58;100617.25;;;13.87
24714;BMP280;12820;51.580;5.010;2023-03-14T16:07:00;100611.09;;;13.67
24714;BMP280;12820;51.580;5.010;2023-03-14T16:12:02;100628.34;;;13.53
24714;BMP280;12820;51.580;5.010;2023-03-14T16:17:06;100649.09;;;13.36
24714;BMP280;12820;51.580;5.010;2023-03-14T16:22:12;100657.94;;;13.20
24714;BMP280;12820;51.580;5.010;2023-03-14T16:27:14;100670.00;;;13.10
24714;BMP280;12820;51.580;5.010;2023-03-14T16:32:16;100686.31;;;12.98
24714;BMP280;12820;51.580;5.010;2023-03-14T16:37:22;100694.16;;;12.88
24714;BMP280;12820;51.580;5.010;2023-03-14T16:42:24;100697.91;;;12.73
24714;BMP280;12820;51.580;5.010;2023-03-14T16:47:27;100703.25;;;12.61
24714;BMP280;12820;51.580;5.010;2023-03-14T16:52:31;100710.25;;;12.49
24714;BMP280;12820;51.580;5.010;2023-03-14T16:57:33;100716.31;;;12.42
24714;BMP280;12820;51.580;5.010;2023-03-14T17:02:35;100720.66;;;12.34
24714;BMP280;12820;51.580;5.010;2023-03-14T17:07:37;100733.50;;;12.24
24714;BMP280;12820;51.580;5.010;2023-03-14T17:12:39;100750.59;;;12.12
24714;BMP280;12820;51.580;5.010;2023-03-14T17:17:41;100764.22;;;12.04
24714;BMP280;12820;51.580;5.010;2023-03-14T17:22:43;100761.91;;;11.95
24714;BMP280;12820;51.580;5.010;2023-03-14T17:27:45;100768.88;;;11.81
24714;BMP280;12820;51.580;5.010;2023-03-14T17:32:48;100792.63;;;11.69
24714;BMP280;12820;51.580;5.010;2023-03-14T17:37:50;100798.81;;;11.53
24714;BMP280;12820;51.580;5.010;2023-03-14T17:42:52;100809.97;;;11.39
24714;BMP280;12820;51.580;5.010;2023-03-14T17:47:54;100828.72;;;11.22
24714;BMP280;12820;51.580;5.010;2023-03-14T17:52:56;100831.50;;;11.06
24714;BMP280;12820;51.580;5.010;2023-03-14T17:57:58;100842.69;;;10.89
24714;BMP280;12820;51.580;5.010;2023-03-14T18:03:02;100848.78;;;10.73
24714;BMP280;12820;51.580;5.010;2023-03-14T18:08:05;100859.88;;;10.58
24714;BMP280;12820;51.580;5.010;2023-03-14T18:13:07;100872.63;;;10.45
24714;BMP280;12820;51.580;5.010;2023-03-14T18:18:09;100894.59;;;10.29
24714;BMP280;12820;51.580;5.010;2023-03-14T18:23:11;100903.19;;;10.14
24714;BMP280;12820;51.580;5.010;2023-03-14T18:28:14;100898.28;;;10.01
24714;BMP280;12820;51.580;5.010;2023-03-14T18:33:21;100914.34;;;9.88
24714;BMP280;12820;51.580;5.010;2023-03-14T18:38:23;100911.09;;;9.75
24714;BMP280;12820;51.580;5.010;2023-03-14T18:43:25;100921.22;;;9.64
24714;BMP280;12820;51.580;5.010;2023-03-14T18:48:28;100935.53;;;9.54
24714;BMP280;12820;51.580;5.010;2023-03-14T18:53:30;100943.19;;;9.43
24714;BMP280;12820;51.580;5.010;2023-03-14T18:58:33;100943.22;;;9.36
24714;BMP280;12820;51.580;5.010;2023-03-14T19:03:35;100941.63;;;9.26
24714;BMP280;12820;51.580;5.010;2023-03-14T19:08:39;100946.75;;;9.15
24714;BMP280;12820;51.580;5.010;2023-03-14T19:13:43;100947.63;;;9.02
24714;BMP280;12820;51.580;5.010;2023-03-14T19:18:45;100958.56;;;8.92
24714;BMP280;12820;51.580;5.010;2023-03-14T19:23:47;100966.97;;;8.83
24714;BMP280;12820;51.580;5.010;2023-03-14T19:28:50;100963.69;;;8.75
24714;BMP280;12820;51.580;5.010;2023-03-14T19:33:55;100980.47;;;8.63
24714;BMP280;12820;51.580;5.010;2023-03-14T19:39:00;100972.16;;;8.52
24714;BMP280;12820;51.580;5.010;2023-03-14T19:44:04;100974.69;;;8.42
24714;BMP280;12820;51.580;5.010;2023-03-14T19:49:06;100977.22;;;8.33
24714;BMP280;12820;51.580;5.010;2023-03-14T19:54:08;100975.56;;;8.23
24714;BMP280;12820;51.580;5.010;2023-03-14T19:59:11;100983.94;;;8.15
24714;BMP280;12820;51.580;5.010;2023-03-14T20:04:13;100982.28;;;8.05
24714;BMP280;12820;51.580;5.010;2023-03-14T20:09:15;100989.78;;;7.97
24714;BMP280;12820;51.580;5.010;2023-03-14T20:14:18;100998.13;;;7.88
24714;BMP280;12820;51.580;5.010;2023-03-14T20:19:20;101000.66;;;7.81
24714;BMP280;12820;51.580;5.010;2023-03-14T20:24:23;101016.50;;;7.73
24714;BMP280;12820;51.580;5.010;2023-03-14T20:29:25;101014.00;;;7.67
24714;BMP280;12820;51.580;5.010;2023-03-14T20:34:28;101017.31;;;7.62
24714;BMP280;12820;51.580;5.010;2023-03-14T20:39:33;101010.63;;;7.56
24714;BMP280;12820;51.580;5.010;2023-03-14T20:44:36;101034.81;;;7.53
24714;BMP280;12820;51.580;5.010;2023-03-14T20:49:39;101038.97;;;7.49
24714;BMP280;12820;51.580;5.010;2023-03-14T20:54:41;101037.31;;;7.48
24714;BMP280;12820;51.580;5.010;2023-03-14T20:59:43;101033.13;;;7.42
24714;BMP280;12820;51.580;5.010;2023-03-14T21:04:46;101033.13;;;7.37
24714;BMP280;12820;51.580;5.010;2023-03-14T21:09:48;101046.47;;;7.35
24714;BMP280;12820;51.580;5.010;2023-03-14T21:14:50;101052.28;;;7.31
24714;BMP280;12820;51.580;5.010;2023-03-14T21:19:52;101060.63;;;7.30
24714;BMP280;12820;51.580;5.010;2023-03-14T21:24:59;101058.13;;;7.30
24714;BMP280;12820;51.580;5.010;2023-03-14T21:30:01;101053.09;;;7.31
24714;BMP280;12820;51.580;5.010;2023-03-14T21:35:03;101053.97;;;7.35
24714;BMP280;12820;51.580;5.010;2023-03-14T21:40:06;101052.28;;;7.37
24714;BMP280;12820;51.580;5.010;2023-03-14T21:45:10;101061.47;;;7.42
24714;BMP280;12820;51.580;5.010;2023-03-14T21:50:13;101077.31;;;7.45
24714;BMP280;12820;51.580;5.010;2023-03-14T21:55:18;101085.66;;;7.50
24714;BMP280;12820;51.580;5.010;2023-03-14T22:00:21;101077.31;;;7.54
24714;BMP280;12820;51.580;5.010;2023-03-14T22:05:23;101089.84;;;7.60
24714;BMP280;12820;51.580;5.010;2023-03-14T22:10:25;101092.34;;;7.66
24714;BMP280;12820;51.580;5.010;2023-03-14T22:15:27;101105.72;;;7.72
24714;BMP280;12820;51.580;5.010;2023-03-14T22:20:29;101118.22;;;7.78
24714;BMP280;12820;51.580;5.010;2023-03-14T22:25:31;101139.91;;;7.83
24714;BMP280;12820;51.580;5.010;2023-03-14T22:30:34;101129.06;;;7.87
24714;BMP280;12820;51.580;5.010;2023-03-14T22:35:36;101149.09;;;7.90
24714;BMP280;12820;51.580;5.010;2023-03-14T22:40:38;101170.81;;;7.91
24714;BMP280;12820;51.580;5.010;2023-03-14T22:45:41;101180.81;;;7.87
24714;BMP280;12820;51.580;5.010;2023-03-14T22:50:43;101174.91;;;7.73
24714;BMP280;12820;51.580;5.010;2023-03-14T22:55:45;101160.72;;;7.63
24714;BMP280;12820;51.580;5.010;2023-03-14T23:00:47;101166.53;;;7.54
24714;BMP280;12820;51.580;5.010;2023-03-14T23:05:49;101173.19;;;7.49
24714;BMP280;12820;51.580;5.010;2023-03-14T23:10:58;101185.66;;;7.43
24714;BMP280;12820;51.580;5.010;2023-03-14T23:16:01;101189.81;;;7.38
24714;BMP280;12820;51.580;5.010;2023-03-14T23:21:14;101188.13;;;7.36
24714;BMP280;12820;51.580;5.010;2023-03-14T23:26:23;101189.78;;;7.34
24714;BMP280;12820;51.580;5.010;2023-03-14T23:31:25;101173.94;;;7.30
24714;BMP280;12820;51.580;5.010;2023-03-14T23:36:28;101191.44;;;7.27
24714;BMP280;12820;51.580;5.010;2023-03-14T23:41:30;101188.94;;;7.29
24714;BMP280;12820;51.580;5.010;2023-03-14T23:46:32;101183.94;;;7.29
24714;BMP280;12820;51.580;5.010;2023-03-14T23:51:34;101171.44;;;7.30
24714;BMP280;12820;51.580;5.010;2023-03-14T23:56:36;101170.63;;;7.30
